createdAt,value
2023-02-09T00:01:27.673Z,10.95
2023-02-09T00:03:54.540Z,10.13
2023-02-09T00:06:23.401Z,9.82
2023-02-09T00:08:50.605Z,11.13
2023-02-09T00:11:43.545Z,10.32
2023-02-09T00:14:11.915Z,11.63
2023-02-09T00:16:38.630Z,11.15
2023-02-09T00:19:05.428Z,10.65
2023-02-09T00:21:32.410Z,11.48
2023-02-09T00:23:59.474Z,11.85
2023-02-09T00:26:26.542Z,10.52
2023-02-09T00:28:53.085Z,11.00
2023-02-09T00:31:19.954Z,11.57
2023-02-09T00:33:46.618Z,10.75
2023-02-09T00:36:14.817Z,10.38
2023-02-09T00:38:42.737Z,10.88
2023-02-09T00:41:10.234Z,10.73
2023-02-09T00:43:36.792Z,11.65
2023-02-09T00:46:03.706Z,11.27
2023-02-09T00:48:30.717Z,11.05
2023-02-09T00:50:57.565Z,11.45
2023-02-09T00:53:24.739Z,11.55
2023-02-09T00:55:51.533Z,10.50
2023-02-09T00:58:19.059Z,11.73
2023-02-09T01:00:46.354Z,11.25
2023-02-09T01:03:13.088Z,11.27
2023-02-09T01:05:41.682Z,11.18
2023-02-09T01:08:08.578Z,11.88
2023-02-09T01:10:35.317Z,11.45
2023-02-09T01:13:01.909Z,11.75
2023-02-09T01:15:28.531Z,11.93
2023-02-09T01:17:55.283Z,11.93
2023-02-09T01:20:21.881Z,11.73
2023-02-09T01:22:48.516Z,11.63
2023-02-09T01:25:15.082Z,11.60
2023-02-09T01:27:42.319Z,11.48
2023-02-09T01:30:09.730Z,12.68
2023-02-09T01:32:37.383Z,12.52
2023-02-09T01:35:04.507Z,11.82
2023-02-09T01:37:33.125Z,12.32
2023-02-09T01:39:59.691Z,11.85
2023-02-09T01:42:26.258Z,11.95
2023-02-09T01:45:07.859Z,11.73
2023-02-09T01:47:45.895Z,12.43
2023-02-09T01:50:13.759Z,12.27
2023-02-09T01:52:41.194Z,12.75
2023-02-09T01:55:12.562Z,12.57
2023-02-09T01:57:44.318Z,12.60
2023-02-09T02:02:41.692Z,12.55
2023-02-09T02:05:09.039Z,12.82
2023-02-09T02:08:06.084Z,12.60
2023-02-09T02:10:33.048Z,13.63
2023-02-09T02:13:00.057Z,12.20
2023-02-09T02:16:25.336Z,13.02
2023-02-09T02:19:21.030Z,12.73
2023-02-09T02:22:07.923Z,12.77
2023-02-09T02:24:43.527Z,13.07
2023-02-09T02:27:36.974Z,12.88
2023-02-09T02:30:14.258Z,13.30
2023-02-09T02:32:43.563Z,12.85
2023-02-09T02:35:16.084Z,14.05
2023-02-09T02:38:01.364Z,13.18
2023-02-09T02:40:52.572Z,12.88
2023-02-09T02:43:31.000Z,13.27
2023-02-09T02:46:06.031Z,13.48
2023-02-09T02:48:47.791Z,12.80
2023-02-09T02:51:27.712Z,13.98
2023-02-09T02:53:59.296Z,13.45
2023-02-09T02:56:31.816Z,13.35
2023-02-09T02:59:03.154Z,14.18
2023-02-09T03:01:39.856Z,18.98
2023-02-09T03:04:08.589Z,16.42
2023-02-09T03:06:37.502Z,14.63
2023-02-09T03:09:04.914Z,14.07
2023-02-09T03:11:36.774Z,13.93
2023-02-09T03:14:12.387Z,13.85
2023-02-09T03:16:52.688Z,14.10
2023-02-09T03:19:46.135Z,12.93
2023-02-09T03:22:12.659Z,13.80
2023-02-09T03:25:02.925Z,13.20
2023-02-09T03:27:35.767Z,14.27
2023-02-09T03:30:04.684Z,13.52
2023-02-09T03:32:32.993Z,14.23
2023-02-09T03:35:00.034Z,13.93
2023-02-09T03:37:26.691Z,14.52
2023-02-09T03:39:53.234Z,14.55
2023-02-09T03:42:19.890Z,13.82
2023-02-09T03:44:46.488Z,13.98
2023-02-09T03:47:13.148Z,14.40
2023-02-09T03:49:41.512Z,14.18
2023-02-09T03:52:10.720Z,14.07
2023-02-09T03:54:37.686Z,13.50
2023-02-09T03:57:04.862Z,14.80
2023-02-09T03:59:35.362Z,14.02
2023-02-09T04:02:02.737Z,15.00
2023-02-09T04:04:29.369Z,14.60
2023-02-09T04:06:56.388Z,14.57
2023-02-09T04:09:24.017Z,14.27
2023-02-09T04:11:51.089Z,13.57
2023-02-09T04:14:17.652Z,14.65
2023-02-09T04:16:44.511Z,14.70
2023-02-09T04:19:11.355Z,15.27
2023-02-09T04:21:38.925Z,14.73
2023-02-09T04:24:06.486Z,15.32
2023-02-09T04:26:33.672Z,13.82
2023-02-09T04:29:00.272Z,14.27
2023-02-09T04:31:27.342Z,14.60
2023-02-09T04:33:54.006Z,15.43
2023-02-09T04:36:23.345Z,15.00
2023-02-09T04:38:50.542Z,15.00
2023-02-09T04:41:17.271Z,14.27
2023-02-09T04:43:43.834Z,15.48
2023-02-09T04:46:15.864Z,16.25
2023-02-09T04:48:43.056Z,15.35
2023-02-09T04:51:09.807Z,15.65
2023-02-09T04:53:36.633Z,14.85
2023-02-09T04:56:03.829Z,15.32
2023-02-09T04:58:49.317Z,15.23
2023-02-09T05:01:20.801Z,15.45
2023-02-09T05:03:47.410Z,14.05
2023-02-09T05:06:14.460Z,15.82
2023-02-09T05:08:41.105Z,15.23
2023-02-09T05:11:07.636Z,15.25
2023-02-09T05:13:34.823Z,15.05
2023-02-09T05:16:08.480Z,14.65
2023-02-09T05:18:36.082Z,15.10
2023-02-09T05:21:02.936Z,15.95
2023-02-09T05:23:29.921Z,15.75
2023-02-09T05:25:56.610Z,14.32
2023-02-09T05:28:24.415Z,16.05
2023-02-09T05:30:53.756Z,14.80
2023-02-09T05:33:21.871Z,15.73
2023-02-09T05:35:48.522Z,15.63
2023-02-09T05:38:15.112Z,15.02
2023-02-09T05:40:43.104Z,16.95
2023-02-09T05:43:11.433Z,15.82
2023-02-09T05:45:38.064Z,15.38
2023-02-09T05:48:04.786Z,15.27
2023-02-09T05:50:31.397Z,15.73
2023-02-09T05:53:00.800Z,16.13
2023-02-09T05:55:27.835Z,16.90
2023-02-09T05:57:54.526Z,14.75
2023-02-09T06:00:21.567Z,14.60
2023-02-09T06:02:48.107Z,14.85
2023-02-09T06:05:14.800Z,14.80
2023-02-09T06:07:41.461Z,15.38
2023-02-09T06:10:08.575Z,17.35
2023-02-09T06:12:35.180Z,17.67
2023-02-09T06:15:01.957Z,16.05
2023-02-09T06:17:28.562Z,17.05
2023-02-09T06:19:55.137Z,21.60
2023-02-09T06:22:21.691Z,19.08
2023-02-09T06:24:48.262Z,21.38
2023-02-09T06:27:14.844Z,22.48
2023-02-09T06:29:41.518Z,25.67
2023-02-09T06:32:08.176Z,22.27
2023-02-09T06:34:34.776Z,25.00
2023-02-09T06:37:01.373Z,26.98
2023-02-09T06:39:28.089Z,26.33
2023-02-09T06:41:54.655Z,26.40
2023-02-09T06:44:21.468Z,25.02
2023-02-09T06:46:48.079Z,25.10
2023-02-09T06:49:14.692Z,29.70
2023-02-09T06:51:41.455Z,29.23
2023-02-09T06:54:08.256Z,29.73
2023-02-09T06:56:34.784Z,28.77
2023-02-09T06:59:01.364Z,27.60
2023-02-09T07:01:27.964Z,25.70
2023-02-09T07:03:54.578Z,23.92
2023-02-09T07:06:22.182Z,23.30
2023-02-09T07:08:49.952Z,22.77
2023-02-09T07:11:18.303Z,23.33
2023-02-09T07:13:45.966Z,22.70
2023-02-09T07:16:13.273Z,23.35
2023-02-09T07:18:40.360Z,22.85
2023-02-09T07:21:15.623Z,23.10
2023-02-09T07:26:26.638Z,24.38
2023-02-09T07:28:53.239Z,23.90
2023-02-09T07:31:20.061Z,23.25
2023-02-09T07:33:47.148Z,25.35
2023-02-09T07:36:16.256Z,23.70
2023-02-09T07:38:43.434Z,23.48
2023-02-09T07:41:19.659Z,25.55
2023-02-09T07:43:47.124Z,26.30
2023-02-09T07:46:18.630Z,26.83
2023-02-09T07:48:45.297Z,25.80
2023-02-09T07:51:16.707Z,26.00
2023-02-09T07:53:43.417Z,25.83
2023-02-09T07:56:09.983Z,23.60
2023-02-09T07:58:36.662Z,24.20
2023-02-09T08:01:07.237Z,22.08
2023-02-09T08:03:38.792Z,21.80
2023-02-09T08:06:30.416Z,21.10
2023-02-09T08:09:04.371Z,21.98
2023-02-09T08:11:58.545Z,21.40
2023-02-09T08:14:41.698Z,21.52
2023-02-09T08:17:24.156Z,20.83
2023-02-09T08:20:00.155Z,21.50
2023-02-09T08:22:31.392Z,20.52
2023-02-09T08:24:59.537Z,21.08
2023-02-09T08:27:26.403Z,24.50
2023-02-09T08:29:53.199Z,25.02
2023-02-09T08:32:19.733Z,23.73
2023-02-09T08:34:46.298Z,24.00
2023-02-09T08:37:12.862Z,24.08
2023-02-09T08:39:39.385Z,24.90
2023-02-09T08:42:06.181Z,23.48
2023-02-09T08:44:32.884Z,23.83
2023-02-09T08:46:59.455Z,23.88
2023-02-09T08:49:26.185Z,25.05
2023-02-09T08:51:52.745Z,23.15
2023-02-09T08:54:19.720Z,22.48
2023-02-09T08:56:46.338Z,19.65
2023-02-09T08:59:13.124Z,20.88
2023-02-09T09:01:40.551Z,20.10
2023-02-09T09:04:07.695Z,20.75
2023-02-09T09:06:34.426Z,20.45
2023-02-09T09:09:01.026Z,20.92
2023-02-09T09:11:28.169Z,21.80
2023-02-09T09:13:54.725Z,25.35
2023-02-09T09:16:23.080Z,24.17
2023-02-09T09:18:50.227Z,25.52
2023-02-09T09:21:18.685Z,24.38
2023-02-09T09:23:46.528Z,50.60
2023-02-09T09:26:14.260Z,42.25
2023-02-09T09:28:40.995Z,28.52
2023-02-09T09:31:12.904Z,54.33
2023-02-09T09:33:40.395Z,42.78
2023-02-09T09:36:07.914Z,41.03
2023-02-09T09:38:35.772Z,47.22
2023-02-09T09:41:04.834Z,53.58
2023-02-09T09:43:39.851Z,31.48
2023-02-09T09:46:12.464Z,76.82
2023-02-09T09:48:49.149Z,26.50
2023-02-09T09:51:22.656Z,34.28
2023-02-09T09:53:53.381Z,24.92
2023-02-09T09:56:21.426Z,22.38
2023-02-09T09:58:49.929Z,23.70
2023-02-09T10:01:20.580Z,23.08
2023-02-09T10:03:47.662Z,24.50
2023-02-09T10:06:18.575Z,25.30
2023-02-09T10:09:03.091Z,24.73
2023-02-09T10:11:36.383Z,25.70
2023-02-09T10:14:03.041Z,24.40
2023-02-09T10:16:35.059Z,24.02
2023-02-09T10:19:04.556Z,23.52
2023-02-09T10:21:34.177Z,23.20
2023-02-09T10:24:00.655Z,22.52
2023-02-09T10:26:37.137Z,22.42
2023-02-09T10:29:24.627Z,23.80
2023-02-09T10:31:59.888Z,23.42
2023-02-09T10:34:42.982Z,46.03
2023-02-09T10:37:12.983Z,24.33
2023-02-09T10:39:40.044Z,22.10
2023-02-09T10:42:28.499Z,21.67
2023-02-09T10:44:57.645Z,23.75
2023-02-09T10:47:30.121Z,22.45
2023-02-09T10:50:18.138Z,22.70
2023-02-09T10:52:59.793Z,22.95
2023-02-09T10:55:36.421Z,21.42
2023-02-09T10:58:10.961Z,21.92
2023-02-09T11:00:47.996Z,21.73
2023-02-09T11:03:27.839Z,22.58
2023-02-09T11:06:03.725Z,20.80
2023-02-09T11:09:14.142Z,21.70
2023-02-09T11:11:41.790Z,21.00
2023-02-09T11:14:17.213Z,21.15
2023-02-09T11:16:55.624Z,21.55
2023-02-09T11:19:56.108Z,20.65
2023-02-09T11:23:05.686Z,20.90
2023-02-09T11:25:45.416Z,20.83
2023-02-09T11:28:41.111Z,22.52
2023-02-09T11:31:32.548Z,21.33
2023-02-09T11:34:14.072Z,19.90
2023-02-09T11:36:43.602Z,21.95
2023-02-09T11:39:31.759Z,20.75
2023-02-09T11:42:32.212Z,19.90
2023-02-09T11:45:10.984Z,20.05
2023-02-09T11:47:46.819Z,21.65
2023-02-09T11:50:37.845Z,20.40
2023-02-09T11:53:13.863Z,21.05
2023-02-09T11:55:48.550Z,21.60
2023-02-09T11:58:36.201Z,20.83
2023-02-09T12:01:15.131Z,20.45
2023-02-09T12:03:53.665Z,21.20
2023-02-09T12:06:23.104Z,20.70
2023-02-09T12:08:57.347Z,22.45
2023-02-09T12:11:30.656Z,21.25
2023-02-09T12:14:38.773Z,21.52
2023-02-09T12:17:31.651Z,19.92
2023-02-09T12:20:01.432Z,20.52
2023-02-09T12:22:34.100Z,21.48
2023-02-09T12:25:14.468Z,20.58
2023-02-09T12:27:43.231Z,20.45
2023-02-09T12:30:41.977Z,20.30
2023-02-09T12:33:17.330Z,21.27
2023-02-09T12:36:00.585Z,21.02
2023-02-09T12:38:53.615Z,21.52
2023-02-09T12:41:25.564Z,19.90
2023-02-09T12:44:10.542Z,19.30
2023-02-09T12:46:51.462Z,19.20
2023-02-09T12:49:21.209Z,20.63
2023-02-09T12:51:50.547Z,20.80
2023-02-09T12:54:26.394Z,20.20
2023-02-09T12:56:53.300Z,20.35
2023-02-09T12:59:23.167Z,20.05
2023-02-09T13:02:07.905Z,20.40
2023-02-09T13:04:51.250Z,20.10
2023-02-09T13:07:35.445Z,19.88
2023-02-09T13:10:09.095Z,19.35
2023-02-09T13:12:42.844Z,18.67
2023-02-09T13:15:16.018Z,19.33
2023-02-09T13:17:48.304Z,18.67
2023-02-09T13:20:45.862Z,17.30
2023-02-09T13:23:22.918Z,17.25
2023-02-09T13:25:49.562Z,18.48
2023-02-09T13:28:19.777Z,18.02
2023-02-09T13:30:46.903Z,17.85
2023-02-09T13:33:48.522Z,17.35
2023-02-09T13:37:02.504Z,20.57
2023-02-09T13:39:35.082Z,18.92
2023-02-09T13:42:01.751Z,18.80
2023-02-09T13:44:32.041Z,18.77
2023-02-09T13:47:07.261Z,19.77
2023-02-09T13:49:33.848Z,20.23
2023-02-09T13:52:12.398Z,18.90
2023-02-09T13:54:40.548Z,19.33
2023-02-09T13:57:31.881Z,18.35
2023-02-09T14:00:12.675Z,18.85
2023-02-09T14:02:39.754Z,18.20
2023-02-09T14:05:08.510Z,19.83
2023-02-09T14:07:38.362Z,20.08
2023-02-09T14:10:16.753Z,19.90
2023-02-09T14:12:52.129Z,19.70
2023-02-09T14:16:07.717Z,18.50
2023-02-09T14:18:49.508Z,19.60
2023-02-09T14:21:20.385Z,20.95
2023-02-09T14:24:13.490Z,18.27
2023-02-09T14:26:54.017Z,19.58
2023-02-09T14:29:38.138Z,18.65
2023-02-09T14:32:33.585Z,19.60
2023-02-09T14:35:19.716Z,21.73
2023-02-09T14:37:47.544Z,20.60
2023-02-09T14:40:28.282Z,20.73
2023-02-09T14:43:22.035Z,24.50
2023-02-09T14:45:59.410Z,17.65
2023-02-09T14:48:28.774Z,17.95
2023-02-09T14:51:01.681Z,15.82
2023-02-09T14:53:31.217Z,17.42
2023-02-09T14:55:58.532Z,15.95
2023-02-09T14:58:30.888Z,15.85
2023-02-09T15:01:00.495Z,16.45
2023-02-09T15:03:27.507Z,15.73
2023-02-09T15:06:05.654Z,14.65
2023-02-09T15:08:36.430Z,14.30
2023-02-09T15:11:27.681Z,14.18
2023-02-09T15:13:59.934Z,13.88
2023-02-09T15:16:26.558Z,14.98
2023-02-09T15:18:53.169Z,13.98
2023-02-09T15:21:19.721Z,14.15
2023-02-09T15:23:46.317Z,12.77
2023-02-09T15:26:26.657Z,12.98
2023-02-09T15:28:53.863Z,12.98
2023-02-09T15:31:20.464Z,12.85
2023-02-09T15:33:47.191Z,12.02
2023-02-09T15:36:19.409Z,11.80
2023-02-09T15:38:46.281Z,11.75
2023-02-09T15:41:31.351Z,12.73
2023-02-09T15:44:17.271Z,13.13
2023-02-09T15:47:04.746Z,12.02
2023-02-09T15:49:32.003Z,12.60
2023-02-09T15:51:58.640Z,12.65
2023-02-09T15:54:32.835Z,13.63
2023-02-09T15:57:01.066Z,12.25
2023-02-09T15:59:27.663Z,12.23
2023-02-09T16:01:54.336Z,15.85
2023-02-09T16:04:20.984Z,14.23
2023-02-09T16:06:53.117Z,12.95
2023-02-09T16:09:23.986Z,13.50
2023-02-09T16:11:50.682Z,13.48
2023-02-09T16:14:23.130Z,12.98
2023-02-09T16:16:50.265Z,12.85
2023-02-09T16:19:17.312Z,12.85
2023-02-09T16:21:47.882Z,13.18
2023-02-09T16:24:47.219Z,12.20
2023-02-09T16:27:23.769Z,13.73
2023-02-09T16:29:50.554Z,12.43
2023-02-09T16:32:19.108Z,13.70
2023-02-09T16:34:45.906Z,14.18
2023-02-09T16:37:18.366Z,14.43
2023-02-09T16:39:45.794Z,13.93
2023-02-09T16:42:14.782Z,14.07
2023-02-09T16:44:42.350Z,14.05
2023-02-09T16:47:21.492Z,13.38
2023-02-09T16:49:57.791Z,14.13
2023-02-09T16:52:27.715Z,12.65
2023-02-09T16:55:00.941Z,12.93
2023-02-09T16:57:28.940Z,12.25
2023-02-09T16:59:56.249Z,11.48
2023-02-09T17:02:31.948Z,12.50
2023-02-09T17:04:59.405Z,12.63
2023-02-09T17:07:39.817Z,13.45
2023-02-09T17:10:17.119Z,12.73
2023-02-09T17:12:44.024Z,12.23
2023-02-09T17:15:29.017Z,13.02
2023-02-09T17:18:02.306Z,12.93
2023-02-09T17:20:35.502Z,12.48
2023-02-09T17:23:02.099Z,13.40
2023-02-09T17:25:28.789Z,12.43
2023-02-09T17:27:55.435Z,11.95
2023-02-09T17:30:22.011Z,12.30
2023-02-09T17:32:55.621Z,12.52
2023-02-09T17:35:44.588Z,14.10
2023-02-09T17:38:21.982Z,11.70
2023-02-09T17:40:49.495Z,15.13
2023-02-09T17:43:16.270Z,15.05
2023-02-09T17:45:47.786Z,15.85
2023-02-09T17:48:16.566Z,15.32
2023-02-09T17:50:48.658Z,16.17
2023-02-09T17:53:24.141Z,15.57
2023-02-09T17:55:54.048Z,15.80
2023-02-09T17:58:20.597Z,14.65
2023-02-09T18:00:47.137Z,14.25
2023-02-09T18:03:19.381Z,14.30
2023-02-09T18:05:51.037Z,16.15
2023-02-09T18:08:18.911Z,15.90
2023-02-09T18:10:45.483Z,16.65
2023-02-09T18:13:20.661Z,16.52
2023-02-09T18:15:48.805Z,16.60
2023-02-09T18:18:15.971Z,17.23
2023-02-09T18:20:42.703Z,17.17
2023-02-09T18:23:15.028Z,16.88
2023-02-09T18:25:41.657Z,14.95
2023-02-09T18:28:08.734Z,15.18
2023-02-09T18:30:38.360Z,15.38
2023-02-09T18:33:07.057Z,15.07
2023-02-09T18:35:39.549Z,15.18
2023-02-09T18:38:08.848Z,14.05
2023-02-09T18:40:36.853Z,16.08
2023-02-09T18:43:04.975Z,16.00
2023-02-09T18:45:32.196Z,16.08
2023-02-09T18:47:59.299Z,15.68
2023-02-09T18:50:31.694Z,15.65
2023-02-09T18:53:00.616Z,14.18
2023-02-09T18:55:29.683Z,13.65
2023-02-09T18:57:59.114Z,13.32
2023-02-09T19:00:26.450Z,14.43
2023-02-09T19:02:57.474Z,14.57
2023-02-09T19:05:26.253Z,15.23
2023-02-09T19:07:53.316Z,15.15
2023-02-09T19:10:21.188Z,14.57
2023-02-09T19:12:47.859Z,15.40
2023-02-09T19:15:18.633Z,15.15
2023-02-09T19:17:45.897Z,15.00
2023-02-09T19:20:16.603Z,15.52
2023-02-09T19:22:43.261Z,15.57
2023-02-09T19:25:10.074Z,15.75
2023-02-09T19:27:37.647Z,14.38
2023-02-09T19:30:05.079Z,14.25
2023-02-09T19:32:32.107Z,14.40
2023-02-09T19:34:58.711Z,14.85
2023-02-09T19:37:25.428Z,16.45
2023-02-09T19:40:04.402Z,15.10
2023-02-09T19:42:32.861Z,15.55
2023-02-09T19:45:00.353Z,15.57
2023-02-09T19:47:27.513Z,15.38
2023-02-09T19:49:55.802Z,14.98
2023-02-09T19:52:23.380Z,17.33
2023-02-09T19:54:50.683Z,16.25
2023-02-09T19:57:18.975Z,16.13
2023-02-09T19:59:45.789Z,15.95
2023-02-09T20:02:13.646Z,17.40
2023-02-09T20:04:41.146Z,15.05
2023-02-09T20:07:07.695Z,16.13
2023-02-09T20:09:34.876Z,15.18
2023-02-09T20:12:01.519Z,15.13
2023-02-09T20:14:31.351Z,15.50
2023-02-09T20:16:59.632Z,15.30
2023-02-09T20:19:26.596Z,15.32
2023-02-09T20:21:53.175Z,14.73
2023-02-09T20:24:19.945Z,16.55
2023-02-09T20:26:46.713Z,16.50
2023-02-09T20:29:13.717Z,15.85
2023-02-09T20:31:42.141Z,16.27
2023-02-09T20:34:12.331Z,16.02
2023-02-09T20:36:41.325Z,14.68
2023-02-09T20:39:10.946Z,15.18
2023-02-09T20:41:37.477Z,14.68
2023-02-09T20:44:22.628Z,15.75
2023-02-09T20:46:57.738Z,15.93
2023-02-09T20:49:31.084Z,15.05
2023-02-09T20:51:58.531Z,14.98
2023-02-09T20:54:25.319Z,14.68
2023-02-09T20:56:51.907Z,15.27
2023-02-09T20:59:18.622Z,15.43
2023-02-09T21:01:46.008Z,15.13
2023-02-09T21:04:12.837Z,15.23
2023-02-09T21:06:39.457Z,15.82
2023-02-09T21:09:08.230Z,15.90
2023-02-09T21:11:35.084Z,15.57
2023-02-09T21:14:02.029Z,15.35
2023-02-09T21:16:29.028Z,14.57
2023-02-09T21:18:55.622Z,14.60
2023-02-09T21:21:22.724Z,16.20
2023-02-09T21:23:49.342Z,16.67
2023-02-09T21:26:18.149Z,18.05
2023-02-09T21:28:45.386Z,19.25
2023-02-09T21:31:13.939Z,17.58
2023-02-09T21:33:40.524Z,17.45
2023-02-09T21:36:07.669Z,18.42
2023-02-09T21:38:36.999Z,17.95
2023-02-09T21:41:09.364Z,18.63
2023-02-09T21:43:35.978Z,18.27
2023-02-09T21:46:02.655Z,17.83
2023-02-09T21:48:29.243Z,18.27
2023-02-09T21:50:56.093Z,18.20
2023-02-09T21:53:22.758Z,17.65
2023-02-09T21:55:49.305Z,17.42
2023-02-09T21:58:15.845Z,16.15
2023-02-09T22:00:42.512Z,17.25
2023-02-09T22:03:09.492Z,16.95
2023-02-09T22:05:36.062Z,17.73
2023-02-09T22:08:02.601Z,18.65
2023-02-09T22:10:29.125Z,18.17
2023-02-09T22:12:55.682Z,16.42
2023-02-09T22:15:22.279Z,15.85
2023-02-09T22:17:49.281Z,16.05
2023-02-09T22:20:15.890Z,15.85
2023-02-09T22:22:45.303Z,16.52
2023-02-09T22:25:11.853Z,15.43
2023-02-09T22:27:38.455Z,15.68
2023-02-09T22:30:05.229Z,15.48
2023-02-09T22:32:31.793Z,16.10
2023-02-09T22:34:58.330Z,17.45
2023-02-09T22:37:24.921Z,19.35
2023-02-09T22:39:51.477Z,17.48
2023-02-09T22:42:18.129Z,19.52
2023-02-09T22:44:44.664Z,19.48
2023-02-09T22:47:11.313Z,18.20
2023-02-09T22:49:37.852Z,18.92
2023-02-09T22:52:04.541Z,18.23
2023-02-09T22:54:31.121Z,17.85
2023-02-09T22:56:57.678Z,18.25
2023-02-09T22:59:24.261Z,17.10
2023-02-09T23:01:50.824Z,16.92
2023-02-09T23:04:17.490Z,17.30
2023-02-09T23:06:44.220Z,16.55
2023-02-09T23:09:12.576Z,17.48
2023-02-09T23:11:39.372Z,16.98
2023-02-09T23:14:10.052Z,17.80
2023-02-09T23:16:38.696Z,17.15
2023-02-09T23:19:07.429Z,16.27
2023-02-09T23:21:37.195Z,17.90
2023-02-09T23:24:05.037Z,17.08
2023-02-09T23:26:32.047Z,16.92
2023-02-09T23:29:00.948Z,16.70
2023-02-09T23:31:27.867Z,16.63
2023-02-09T23:33:54.754Z,16.05
2023-02-09T23:36:24.237Z,18.10
2023-02-09T23:38:56.860Z,17.63
2023-02-09T23:41:24.199Z,17.92
2023-02-09T23:43:51.789Z,17.40
2023-02-09T23:46:22.590Z,16.90
2023-02-09T23:48:50.098Z,19.27
2023-02-09T23:51:21.601Z,19.35
2023-02-09T23:53:48.433Z,18.98
2023-02-09T23:56:17.379Z,19.83
2023-02-09T23:58:46.432Z,18.45
